YBCG/OOL METAR and TAF weather

Enter ICAO airport designator
Station Type Date Time Source
YBCG METAR 2020/01/29 03:30 UTC NOAA

YBCG 290330Z AUTO 02012KT 9999 // NCD 29/23 Q1012 RF00.0/000.0


Station Type Date Time Source
YBCG Decoded METAR 2020/01/29 03:30 UTC NOAA

Coolangatta Airport Aws, Australia (YBCG) 28-10S 153-30E 6M
Jan 28, 2020 - 10:30 PM EST / 2020.01.29 0330 UTC
Wind: from the NNE (020 degrees) at 14 MPH (12 KT):0
Visibility: greater than 7 mile(s):0
Temperature: 84 F (29 C)
Dew Point: 73 F (23 C)
Relative Humidity: 70%
Pressure (altimeter): 29.88 in. Hg (1012 hPa)
ob: YBCG 290330Z AUTO 02012KT 9999 // NCD 29/23 Q1012 RF00.0/000.0
cycle: 3

Station Type Date Time Source
YBCG TAF 2020/01/28 18:33 UTC NOAA

TAF YBCG 281705Z 2818/2918 32007KT 9999 SCT025
FM282200 34012KT 9999 FEW025
FM290200 02015KT 9999 FEW035
FM290800 36007KT 9999 SCT015
FM291200 VRB05KT 9999 BKN020

Example: see airport list